< Typhoon 201406 2014 Season Typhoon 201408 >
Typhoon 201407 (HAGIBIS)
General InformationDetailed Track InformationTrack Information on Google MapsForecast History on Google MapsAccess Analytics MapList of All Images || NewsDisaster Info.WeblogTrackbackTyphoon FrontTwiphoonTyphoon Now!Typhoon ImaginationDisaster Info. XMLResourceGoogle EarthGE AnimationAtom FeedGeoJSON
Detalied Best Track Wind (Time Zone = UTC)
Year Month Day Hour Lat. Long. Wind (kt) Gust (kt) Direc. of Major Storm Axis Radius of Major Storm Axis (nm) Radius of Minor Storm Axis (nm) Direc. of Major Gale Axis Radius of Major Gale Axis (nm) Radius of Minor Gale Axis (nm) Image
2014 6 13 00 18.8 116.0 0 0 - - - - - - Image
2014 6 13 06 19.4 116.7 0 0 - - - - - - Image
2014 6 13 12 19.6 116.9 0 0 - - - - - - Image
2014 6 13 18 20.1 117.1 0 0 - - - - - - Image
2014 6 14 00 20.6 117.0 35 0 - - - symmetric 180 180 Image
2014 6 14 06 20.9 116.7 35 0 - - - symmetric 180 180 Image
2014 6 14 12 21.2 116.9 35 0 - - - symmetric 180 180 Image
2014 6 14 18 21.6 116.9 35 0 - - - symmetric 180 180 Image
2014 6 15 00 22.0 116.7 35 0 - - - symmetric 150 150 Image
2014 6 15 06 22.7 116.4 35 0 - - - symmetric 120 120 Image
2014 6 15 12 23.0 116.4 35 0 - - - symmetric 80 80 Image
2014 6 15 18 23.7 116.3 0 0 - - - - - - Image
2014 6 16 00 24.3 116.5 0 0 - - - - - - Image
2014 6 16 06 25.5 117.6 0 0 - - - - - - Image
2014 6 16 12 25.9 118.7 0 0 - - - - - - Image
2014 6 16 18 26.4 120.5 0 0 - - - - - - Image
2014 6 17 00 27.4 122.6 40 0 - - - SW 120 70 Image
2014 6 17 06 28.5 125.7 40 0 - - - SW 120 70 Image
2014 6 17 12 29.2 130.0 0 0 - - - - - - Image
2014 6 17 18 31.0 133.0 0 0 - - - - - - Image
2014 6 18 00 31.0 137.2 0 0 - - - - - - Image
2014 6 18 06 31.4 140.7 0 0 - - - - - - Image
2014 6 18 12 31.9 142.9 0 0 - - - - - - Image
2014 6 18 18 32.2 145.2 0 0 - - - - - - Image
2014 6 19 00 32.8 148.0 0 0 - - - - - - Image
2014 6 19 06 33.0 150.5 0 0 - - - - - - Image
2014 6 19 12 32.9 152.3 0 0 - - - - - - Image
2014 6 19 18 33.0 154.1 0 0 - - - - - - Image
2014 6 20 00 33.4 156.3 0 0 - - - - - - Image
2014 6 20 06 34.1 158.7 0 0 - - - - - - Image
2014 6 20 12 35.0 160.4 0 0 - - - - - - Image
2014 6 20 18 35.7 161.8 0 0 - - - - - - Image
2014 6 21 00 36.7 163.2 0 0 - - - - - - Image
2014 6 21 06 37.7 164.8 0 0 - - - - - - Image
2014 6 21 12 38.7 166.4 0 0 - - - - - - Image
2014 6 21 18 39.6 169.3 0 0 - - - - - - Image
2014 6 22 00 40.4 172.2 0 0 - - - - - - Image
2014 6 22 06 41.6 175.2 0 0 - - - - - - Image
2014 6 22 12 42.9 177.0 0 0 - - - - - - Image
2014 6 22 18 43.6 178.9 0 0 - - - - - - Image
2014 6 23 00 43.8 183.2 0 0 - - - - - - Image
Japan Meteorological Agency Best Track Data | Correction Date : 2014-07-16
< Typhoon 201406 2014 Season Typhoon 201408 >

Help